createdAt,value
2022-10-18T03:35:04.435Z,0.58
2022-10-18T03:40:06.962Z,0.58
2022-10-18T03:45:09.692Z,2.23
2022-10-18T03:50:11.344Z,2.23
2022-10-18T03:55:15.117Z,1.97
2022-10-18T04:00:16.879Z,1.97
2022-10-18T04:05:18.577Z,1.21
2022-10-18T04:10:20.337Z,1.21
2022-10-18T04:15:22.145Z,0.67
2022-10-18T04:20:24.437Z,0.67
2022-10-18T04:25:26.099Z,0
2022-10-18T04:30:27.782Z,0
2022-10-18T04:35:29.472Z,0
2022-10-18T04:40:31.090Z,0
2022-10-18T04:45:32.808Z,0
2022-10-18T04:50:34.567Z,0
2022-10-18T04:55:36.235Z,0
2022-10-18T05:00:41.095Z,1.53
2022-10-18T05:10:48.588Z,0
2022-10-18T05:15:50.488Z,0
2022-10-18T05:20:52.075Z,0
2022-10-18T05:25:53.706Z,0
2022-10-18T05:30:55.506Z,0
2022-10-18T05:35:57.274Z,0
2022-10-18T05:40:59.443Z,0
2022-10-18T05:46:01.188Z,0
2022-10-18T05:51:02.907Z,0
2022-10-18T05:56:05.137Z,0
2022-10-18T06:01:07.601Z,0
2022-10-18T06:06:11.116Z,1.02
2022-10-18T06:11:14.069Z,1.02
2022-10-18T06:16:16.939Z,0
2022-10-18T06:21:19.307Z,0
2022-10-18T06:26:21.281Z,0
2022-10-18T06:31:23.057Z,0
2022-10-18T06:36:24.824Z,0.57
2022-10-18T06:41:26.585Z,0.57
2022-10-18T06:46:28.284Z,1.68
2022-10-18T06:51:30.362Z,1.68
2022-10-18T06:56:32.059Z,1.77
2022-10-18T07:01:34.053Z,1.77
2022-10-18T07:06:35.638Z,1.02
2022-10-18T07:11:37.216Z,0.58
2022-10-18T07:16:38.881Z,0.58
2022-10-18T07:21:40.591Z,0
2022-10-18T07:26:42.285Z,0
2022-10-18T07:31:43.887Z,0.32
2022-10-18T07:36:45.565Z,0.32
2022-10-18T07:41:47.607Z,0
2022-10-18T07:46:49.393Z,0
2022-10-18T07:51:51.104Z,2.11
2022-10-18T07:56:53.052Z,2.11
2022-10-18T08:01:54.965Z,0.84
2022-10-18T08:06:56.667Z,0.84
2022-10-18T08:11:58.258Z,1.53
2022-10-18T08:17:00.252Z,1.53
2022-10-18T08:22:01.987Z,3.26
2022-10-18T08:27:03.777Z,0.97
2022-10-18T08:32:05.800Z,0.97
2022-10-18T08:37:07.558Z,2.17
2022-10-18T08:42:15.500Z,2.17
2022-10-18T08:47:18.550Z,3
2022-10-18T08:52:26.122Z,3
2022-10-18T08:57:28.047Z,0.73
2022-10-18T09:02:36.620Z,0.73
2022-10-18T09:07:45.717Z,3.26
2022-10-18T09:28:15.326Z,2.99
2022-10-18T09:38:28.511Z,1.38
2022-10-18T09:48:42.512Z,3.92
2022-10-18T09:58:50.158Z,2.43
2022-10-18T10:03:51.999Z,1.88
2022-10-18T10:08:55.258Z,1.88
2022-10-18T10:13:57.338Z,5.69
2022-10-18T10:18:59.062Z,5.69
2022-10-18T10:24:00.798Z,1.67
2022-10-18T10:29:02.947Z,1.67
2022-10-18T10:34:05.772Z,3
2022-10-18T10:39:10.806Z,3
2022-10-18T10:44:15.304Z,0.96
2022-10-18T10:54:26.525Z,2.75
2022-10-18T10:59:30.720Z,0.74
2022-10-18T11:04:32.343Z,0.74
2022-10-18T11:14:44.783Z,4.2
2022-10-18T11:24:55.330Z,0
2022-10-18T11:30:03.318Z,1.78
2022-10-18T11:50:37.734Z,1.05
2022-10-18T12:00:50.717Z,1.21
2022-10-18T12:05:54.892Z,1.51
2022-10-18T12:16:05.305Z,5.1
2022-10-18T12:21:07.488Z,5.1
2022-10-18T12:26:10.616Z,1.11
2022-10-18T12:31:16.280Z,1.11
2022-10-18T12:41:29.516Z,2.96
2022-10-18T12:56:43.327Z,1.58
2022-10-18T13:32:36.138Z,1.14
2022-10-18T13:37:37.823Z,1.14
2022-10-18T13:42:39.485Z,0.94
2022-10-18T13:47:41.285Z,0.94
2022-10-18T14:08:12.630Z,2.12
2022-10-18T14:13:19.504Z,2.12
2022-10-18T14:18:25.789Z,1.39
2022-10-18T14:23:31.666Z,1.39
2022-10-18T14:33:41.809Z,2.18
2022-10-18T14:38:46.400Z,2.95
2022-10-18T14:43:48.238Z,2.95
2022-10-18T14:48:51.780Z,0
2022-10-18T14:53:53.891Z,0
2022-10-18T14:58:56.658Z,0.77
2022-10-18T15:03:59.369Z,0.77
2022-10-18T15:09:02.373Z,0
2022-10-18T15:14:05.434Z,0
2022-10-18T15:24:19.374Z,0
2022-10-18T15:29:21.844Z,0
2022-10-18T15:34:24.495Z,0.78
2022-10-18T15:39:27.296Z,0.78
2022-10-18T15:44:31.583Z,0
2022-10-18T15:54:43.893Z,0
2022-10-18T15:59:51.521Z,0
2022-10-18T16:04:53.556Z,0
2022-10-18T16:09:55.222Z,0
2022-10-18T16:14:56.822Z,0
2022-10-18T16:19:58.479Z,0
2022-10-18T16:25:00.062Z,0
2022-10-18T16:30:01.851Z,0
2022-10-18T16:35:03.547Z,0
2022-10-18T16:45:10.593Z,0
2022-10-18T16:50:15.135Z,0.26
2022-10-18T16:55:17.041Z,0.26
2022-10-18T17:00:20.709Z,0
2022-10-18T17:05:23.210Z,0
2022-10-18T17:10:26.628Z,0
2022-10-18T17:20:34.105Z,0
2022-10-18T17:30:43.281Z,0
2022-10-18T17:35:46.391Z,0
2022-10-18T17:40:48.595Z,0
2022-10-18T17:45:54.840Z,1.15
2022-10-18T17:50:57.752Z,1.15
2022-10-18T17:56:04.022Z,1.41
2022-10-18T18:01:10.675Z,1.41
2022-10-18T18:06:15.233Z,0
2022-10-18T18:11:18.276Z,0
2022-10-18T18:16:25.357Z,0
2022-10-18T18:21:28.505Z,0
2022-10-18T18:26:31.894Z,0
2022-10-18T18:36:41.554Z,0
2022-10-18T18:41:44.659Z,0
2022-10-18T18:46:47.410Z,0
2022-10-18T18:51:50.813Z,0
2022-10-18T18:56:53.896Z,0
2022-10-18T19:01:57.540Z,0
2022-10-18T19:07:00.490Z,0
2022-10-18T19:12:03.289Z,0
2022-10-18T19:17:06.120Z,0
2022-10-18T19:22:08.918Z,0
2022-10-18T19:27:14.155Z,0
2022-10-18T19:32:17.405Z,0
2022-10-18T19:37:21.561Z,3.15
2022-10-18T19:42:33.190Z,3.15
2022-10-18T19:47:36.208Z,0
2022-10-18T19:52:39.483Z,0
2022-10-18T19:57:41.849Z,0
2022-10-18T20:02:44.241Z,0
2022-10-18T20:07:46.663Z,0
2022-10-18T20:12:48.356Z,0
2022-10-18T20:17:50.624Z,0
2022-10-18T20:22:52.633Z,0
2022-10-18T20:27:54.276Z,0
2022-10-18T20:32:57.969Z,0
2022-10-18T20:37:59.639Z,0
2022-10-18T20:43:04.767Z,0
2022-10-18T20:48:06.562Z,0
2022-10-18T20:53:08.247Z,0
2022-10-18T20:58:10.167Z,0
2022-10-18T21:08:14.827Z,0
2022-10-18T21:13:16.558Z,0
2022-10-18T21:18:18.435Z,0
2022-10-18T21:23:20.795Z,0
2022-10-18T21:28:23.783Z,0
2022-10-18T21:33:25.408Z,0
2022-10-18T21:38:27.021Z,0
